首页
METAR-TAF:

METAR-TAF

机场 :

Angelina County Airport

拉夫金, 得克萨斯州, 美国

纬度: 31-14-02N, 经度: 094-45-00W, 海拔: 90米

当前天气观测

该预报发布于48分钟前的04:53 UTC
风速4节,风向南转西南
温度 19°C
湿度 94%
气压 1008 hPa
能見度: 16.1公里
少量云层高于11000英尺

METAR: KLFK 250453Z AUTO 21004KT 10SM FEW110 19/18 A2978 RMK AO2 RAE26 SLP080 P0000 T01940178

时间: 00:41 (05:41 UTC)

预报

该预报发布于21分钟前的05:20 UTC
预报有效从25日的 06点(UTC)到 26日的 06点(UTC)
风速5节,风向多变
能見度: 10公里
散云层高于500英尺
多云层高于1500英尺
阴天层高于12000英尺
短暂存在
从 25日的 08点(UTC)到 25日的 12点(UTC)
能見度: 4.8公里
多云层高于500英尺
轻雾
从 25日的 1200点(UTC)
风速5节,风向东转东南
能見度: 6.4公里
阴天层高于800英尺, 积雨云.
雷暴, 小雨, 轻雾
短暂存在
从 25日的 12点(UTC)到 25日的 16点(UTC)
风速10节,风向多变
能見度: 3.2公里
阴天层高于1500英尺, 积雨云.
雷暴, 雨, 轻雾
从 25日的 1600点(UTC)
风速10节,风向多变
能見度: 4.8公里
阴天层高于1500英尺, 积雨云.
雷暴, 雨, 轻雾
从 26日的 0000点(UTC)
风速6节,风向多变
能見度: 10公里
阴天层高于3000英尺, 积雨云.
附近有雷暴

TAF: KLFK 250520Z 2506/2606 VRB05KT P6SM SCT005 BKN015 OVC120 TEMPO 2508/2512 3SM BR BKN005 FM251200 12005KT 4SM -TSRA BR OVC008CB TEMPO 2512/2516 VRB10KT 2SM TSRA BR OVC015CB FM251600 VRB10KT 3SM TSRA BR OVC015CB FM260000 VRB06KT P6SM VCTS OVC030CB

超过4000个机场的气象观测和天气预报(METAR&TAF报告)。

可查询的气象台以黄色和红色小点在地图上表示。

将鼠标移到小点上方,可查看气象台名称。

然后点击查看天气观测和预报。

如需切换地图:点击带黑十字的绿色按钮放大地图;点击带横线的绿色按钮缩小地图;或者点击绿色箭头查看邻近地区的地图。


METAR-TAF: